sensor_id;sensor_type;location;lat;lon;timestamp;temperature;humidity
11454;DHT22;5783;55.174;61.310;2024-01-10T00:00:08;30.30;12.50
11454;DHT22;5783;55.174;61.310;2024-01-10T00:02:38;30.30;12.60
11454;DHT22;5783;55.174;61.310;2024-01-10T00:05:07;30.20;12.60
11454;DHT22;5783;55.174;61.310;2024-01-10T00:07:36;30.20;12.60
11454;DHT22;5783;55.174;61.310;2024-01-10T00:10:06;30.20;12.70
11454;DHT22;5783;55.174;61.310;2024-01-10T00:12:35;30.20;12.60
11454;DHT22;5783;55.174;61.310;2024-01-10T00:15:05;30.20;12.70
11454;DHT22;5783;55.174;61.310;2024-01-10T00:17:34;30.20;12.70
11454;DHT22;5783;55.174;61.310;2024-01-10T00:20:04;30.20;12.70
11454;DHT22;5783;55.174;61.310;2024-01-10T00:22:33;30.20;12.70
11454;DHT22;5783;55.174;61.310;2024-01-10T00:25:02;30.20;12.60
11454;DHT22;5783;55.174;61.310;2024-01-10T00:27:32;30.20;12.80
11454;DHT22;5783;55.174;61.310;2024-01-10T00:30:01;30.20;12.70
11454;DHT22;5783;55.174;61.310;2024-01-10T00:32:32;30.20;12.60
11454;DHT22;5783;55.174;61.310;2024-01-10T00:35:01;30.30;12.70
11454;DHT22;5783;55.174;61.310;2024-01-10T00:37:32;30.30;12.60
11454;DHT22;5783;55.174;61.310;2024-01-10T00:40:01;30.30;12.60
11454;DHT22;5783;55.174;61.310;2024-01-10T00:42:31;30.30;12.70
11454;DHT22;5783;55.174;61.310;2024-01-10T00:45:00;30.30;12.60
11454;DHT22;5783;55.174;61.310;2024-01-10T00:47:31;30.30;12.60
11454;DHT22;5783;55.174;61.310;2024-01-10T00:50:00;30.30;12.50
11454;DHT22;5783;55.174;61.310;2024-01-10T00:52:31;30.30;12.50
11454;DHT22;5783;55.174;61.310;2024-01-10T00:55:00;30.30;12.60
11454;DHT22;5783;55.174;61.310;2024-01-10T00:57:30;30.30;12.60
11454;DHT22;5783;55.174;61.310;2024-01-10T01:00:00;30.30;12.50
11454;DHT22;5783;55.174;61.310;2024-01-10T01:02:30;30.30;12.50
11454;DHT22;5783;55.174;61.310;2024-01-10T01:04:59;30.30;12.50
11454;DHT22;5783;55.174;61.310;2024-01-10T01:07:29;30.30;12.50
11454;DHT22;5783;55.174;61.310;2024-01-10T01:09:58;30.30;12.50
11454;DHT22;5783;55.174;61.310;2024-01-10T01:12:28;30.30;12.50
11454;DHT22;5783;55.174;61.310;2024-01-10T01:14:57;30.30;12.60
11454;DHT22;5783;55.174;61.310;2024-01-10T01:17:26;30.30;12.50
11454;DHT22;5783;55.174;61.310;2024-01-10T01:19:55;30.30;12.50
11454;DHT22;5783;55.174;61.310;2024-01-10T01:22:26;30.30;12.50
11454;DHT22;5783;55.174;61.310;2024-01-10T01:24:55;30.40;12.50
11454;DHT22;5783;55.174;61.310;2024-01-10T01:27:24;30.40;12.50
11454;DHT22;5783;55.174;61.310;2024-01-10T01:29:53;30.40;12.50
11454;DHT22;5783;55.174;61.310;2024-01-10T01:32:22;30.40;12.50
11454;DHT22;5783;55.174;61.310;2024-01-10T01:34:52;30.40;12.50
11454;DHT22;5783;55.174;61.310;2024-01-10T01:37:21;30.40;12.50
11454;DHT22;5783;55.174;61.310;2024-01-10T01:39:50;30.40;12.50
11454;DHT22;5783;55.174;61.310;2024-01-10T01:42:19;30.40;12.50
11454;DHT22;5783;55.174;61.310;2024-01-10T01:47:17;30.50;12.50
11454;DHT22;5783;55.174;61.310;2024-01-10T01:49:48;30.40;12.50
11454;DHT22;5783;55.174;61.310;2024-01-10T01:52:17;30.40;12.50
11454;DHT22;5783;55.174;61.310;2024-01-10T01:54:47;30.40;12.50
11454;DHT22;5783;55.174;61.310;2024-01-10T01:57:17;30.40;12.50
11454;DHT22;5783;55.174;61.310;2024-01-10T01:59:46;30.40;12.40
11454;DHT22;5783;55.174;61.310;2024-01-10T02:02:17;30.40;12.50
11454;DHT22;5783;55.174;61.310;2024-01-10T02:04:47;30.40;12.40
11454;DHT22;5783;55.174;61.310;2024-01-10T02:07:16;30.40;11.90
11454;DHT22;5783;55.174;61.310;2024-01-10T02:09:45;30.40;12.30
11454;DHT22;5783;55.174;61.310;2024-01-10T02:12:14;30.40;12.30
11454;DHT22;5783;55.174;61.310;2024-01-10T02:14:44;30.50;12.40
11454;DHT22;5783;55.174;61.310;2024-01-10T02:17:14;30.40;12.30
11454;DHT22;5783;55.174;61.310;2024-01-10T02:19:43;30.40;12.30
11454;DHT22;5783;55.174;61.310;2024-01-10T02:22:12;30.40;12.20
11454;DHT22;5783;55.174;61.310;2024-01-10T02:24:42;30.40;12.30
11454;DHT22;5783;55.174;61.310;2024-01-10T02:27:11;30.40;12.30
11454;DHT22;5783;55.174;61.310;2024-01-10T02:29:40;30.40;12.20
11454;DHT22;5783;55.174;61.310;2024-01-10T02:32:10;30.40;12.40
11454;DHT22;5783;55.174;61.310;2024-01-10T02:34:39;30.40;12.30
11454;DHT22;5783;55.174;61.310;2024-01-10T02:37:08;30.40;12.30
11454;DHT22;5783;55.174;61.310;2024-01-10T02:39:37;30.40;12.30
11454;DHT22;5783;55.174;61.310;2024-01-10T02:42:06;30.40;12.30
11454;DHT22;5783;55.174;61.310;2024-01-10T02:44:35;30.40;12.30
11454;DHT22;5783;55.174;61.310;2024-01-10T02:47:06;30.40;12.30
11454;DHT22;5783;55.174;61.310;2024-01-10T02:54:33;30.30;11.90
11454;DHT22;5783;55.174;61.310;2024-01-10T03:02:00;30.30;11.90
11454;DHT22;5783;55.174;61.310;2024-01-10T03:04:29;30.30;12.40
11454;DHT22;5783;55.174;61.310;2024-01-10T03:06:58;30.30;13.00
11454;DHT22;5783;55.174;61.310;2024-01-10T03:09:27;30.40;12.50
11454;DHT22;5783;55.174;61.310;2024-01-10T03:11:57;30.30;12.40
11454;DHT22;5783;55.174;61.310;2024-01-10T03:14:26;30.40;12.00
11454;DHT22;5783;55.174;61.310;2024-01-10T03:16:55;30.40;12.50
11454;DHT22;5783;55.174;61.310;2024-01-10T03:19:24;30.40;12.30
11454;DHT22;5783;55.174;61.310;2024-01-10T03:21:52;30.40;12.40
11454;DHT22;5783;55.174;61.310;2024-01-10T03:24:21;30.40;12.40
11454;DHT22;5783;55.174;61.310;2024-01-10T03:26:52;30.50;12.40
11454;DHT22;5783;55.174;61.310;2024-01-10T03:29:21;30.50;12.50
11454;DHT22;5783;55.174;61.310;2024-01-10T03:31:50;30.50;12.30
11454;DHT22;5783;55.174;61.310;2024-01-10T03:34:20;31.70;17.80
11454;DHT22;5783;55.174;61.310;2024-01-10T03:36:49;30.50;12.40
11454;DHT22;5783;55.174;61.310;2024-01-10T03:39:18;30.50;12.30
11454;DHT22;5783;55.174;61.310;2024-01-10T03:41:47;30.50;12.30
11454;DHT22;5783;55.174;61.310;2024-01-10T03:44:16;30.50;12.40
11454;DHT22;5783;55.174;61.310;2024-01-10T03:46:45;30.50;12.30
11454;DHT22;5783;55.174;61.310;2024-01-10T03:49:15;30.40;17.90
11454;DHT22;5783;55.174;61.310;2024-01-10T03:51:44;30.50;12.30
11454;DHT22;5783;55.174;61.310;2024-01-10T03:54:13;30.50;12.30
11454;DHT22;5783;55.174;61.310;2024-01-10T03:56:42;30.50;12.30
11454;DHT22;5783;55.174;61.310;2024-01-10T03:59:11;29.90;26.50
11454;DHT22;5783;55.174;61.310;2024-01-10T04:01:40;30.80;15.90
11454;DHT22;5783;55.174;61.310;2024-01-10T04:04:10;30.90;28.30
11454;DHT22;5783;55.174;61.310;2024-01-10T04:06:39;30.50;12.20
11454;DHT22;5783;55.174;61.310;2024-01-10T04:09:08;30.60;12.20
11454;DHT22;5783;55.174;61.310;2024-01-10T04:11:38;30.60;12.20
11454;DHT22;5783;55.174;61.310;2024-01-10T04:14:07;30.60;12.20
11454;DHT22;5783;55.174;61.310;2024-01-10T04:16:36;30.60;12.20
11454;DHT22;5783;55.174;61.310;2024-01-10T04:19:05;30.50;16.30
11454;DHT22;5783;55.174;61.310;2024-01-10T04:21:34;30.60;12.10
11454;DHT22;5783;55.174;61.310;2024-01-10T04:24:04;30.60;12.20
11454;DHT22;5783;55.174;61.310;2024-01-10T04:26:33;30.60;12.10
11454;DHT22;5783;55.174;61.310;2024-01-10T04:29:02;30.70;12.10
11454;DHT22;5783;55.174;61.310;2024-01-10T04:31:31;30.60;12.10
11454;DHT22;5783;55.174;61.310;2024-01-10T04:34:02;30.60;12.10
11454;DHT22;5783;55.174;61.310;2024-01-10T04:36:31;30.60;12.10
11454;DHT22;5783;55.174;61.310;2024-01-10T04:39:00;30.60;12.10
11454;DHT22;5783;55.174;61.310;2024-01-10T04:41:29;30.60;12.10
11454;DHT22;5783;55.174;61.310;2024-01-10T04:43:59;30.60;12.10
11454;DHT22;5783;55.174;61.310;2024-01-10T04:46:28;30.60;12.10
11454;DHT22;5783;55.174;61.310;2024-01-10T04:48:59;30.60;12.10
11454;DHT22;5783;55.174;61.310;2024-01-10T04:51:28;30.60;15.60
11454;DHT22;5783;55.174;61.310;2024-01-10T04:53:57;30.60;12.40
11454;DHT22;5783;55.174;61.310;2024-01-10T04:56:26;30.70;12.30
11454;DHT22;5783;55.174;61.310;2024-01-10T04:58:56;30.80;12.20
11454;DHT22;5783;55.174;61.310;2024-01-10T05:01:25;30.80;12.10
11454;DHT22;5783;55.174;61.310;2024-01-10T05:03:55;30.90;12.10
11454;DHT22;5783;55.174;61.310;2024-01-10T05:06:24;31.00;12.00
11454;DHT22;5783;55.174;61.310;2024-01-10T05:08:53;31.00;12.00
11454;DHT22;5783;55.174;61.310;2024-01-10T05:11:42;31.10;12.00
11454;DHT22;5783;55.174;61.310;2024-01-10T05:14:13;30.80;10.50
11454;DHT22;5783;55.174;61.310;2024-01-10T05:16:42;30.50;10.50
11454;DHT22;5783;55.174;61.310;2024-01-10T05:19:12;30.30;10.80
11454;DHT22;5783;55.174;61.310;2024-01-10T05:21:41;30.10;11.00
11454;DHT22;5783;55.174;61.310;2024-01-10T05:24:10;30.00;11.10
11454;DHT22;5783;55.174;61.310;2024-01-10T05:26:39;30.00;11.00
11454;DHT22;5783;55.174;61.310;2024-01-10T05:29:09;29.90;11.00
11454;DHT22;5783;55.174;61.310;2024-01-10T05:31:37;29.90;11.00
11454;DHT22;5783;55.174;61.310;2024-01-10T05:34:06;29.90;10.90
11454;DHT22;5783;55.174;61.310;2024-01-10T05:36:35;29.80;10.80
11454;DHT22;5783;55.174;61.310;2024-01-10T05:39:03;29.90;10.30
11454;DHT22;5783;55.174;61.310;2024-01-10T05:41:31;29.80;10.70
11454;DHT22;5783;55.174;61.310;2024-01-10T05:43:59;29.80;10.60
11454;DHT22;5783;55.174;61.310;2024-01-10T05:46:29;29.80;10.50
11454;DHT22;5783;55.174;61.310;2024-01-10T05:48:57;29.70;10.50
11454;DHT22;5783;55.174;61.310;2024-01-10T05:51:26;29.60;10.60
11454;DHT22;5783;55.174;61.310;2024-01-10T05:53:56;29.50;10.80
11454;DHT22;5783;55.174;61.310;2024-01-10T05:56:24;29.50;10.80
11454;DHT22;5783;55.174;61.310;2024-01-10T05:58:53;29.40;10.70
11454;DHT22;5783;55.174;61.310;2024-01-10T06:01:21;29.40;10.60
11454;DHT22;5783;55.174;61.310;2024-01-10T06:03:49;29.30;10.60
11454;DHT22;5783;55.174;61.310;2024-01-10T06:06:18;29.30;10.60
11454;DHT22;5783;55.174;61.310;2024-01-10T06:08:46;29.30;10.40
11454;DHT22;5783;55.174;61.310;2024-01-10T06:11:14;29.20;10.30
11454;DHT22;5783;55.174;61.310;2024-01-10T06:13:42;29.10;10.30
11454;DHT22;5783;55.174;61.310;2024-01-10T06:18:39;28.70;10.50
11454;DHT22;5783;55.174;61.310;2024-01-10T06:21:07;27.30;25.00
11454;DHT22;5783;55.174;61.310;2024-01-10T06:23:37;27.50;31.30
11454;DHT22;5783;55.174;61.310;2024-01-10T06:26:05;27.90;11.00
11454;DHT22;5783;55.174;61.310;2024-01-10T06:28:33;28.00;9.80
11454;DHT22;5783;55.174;61.310;2024-01-10T06:31:01;28.30;32.70
11454;DHT22;5783;55.174;61.310;2024-01-10T06:33:29;27.40;19.70
11454;DHT22;5783;55.174;61.310;2024-01-10T06:38:26;27.90;9.40
11454;DHT22;5783;55.174;61.310;2024-01-10T06:43:22;26.80;19.30
11454;DHT22;5783;55.174;61.310;2024-01-10T06:48:20;27.70;10.00
11454;DHT22;5783;55.174;61.310;2024-01-10T06:50:49;27.40;17.70
11454;DHT22;5783;55.174;61.310;2024-01-10T06:53:19;27.80;10.30
11454;DHT22;5783;55.174;61.310;2024-01-10T06:55:48;27.90;10.40
11454;DHT22;5783;55.174;61.310;2024-01-10T06:58:17;27.90;10.80
11454;DHT22;5783;55.174;61.310;2024-01-10T07:00:46;28.00;10.70
11454;DHT22;5783;55.174;61.310;2024-01-10T07:03:15;28.00;10.50
11454;DHT22;5783;55.174;61.310;2024-01-10T07:05:43;28.10;10.00
11454;DHT22;5783;55.174;61.310;2024-01-10T07:10:42;27.60;9.20
11454;DHT22;5783;55.174;61.310;2024-01-10T07:15:40;27.70;17.30
11454;DHT22;5783;55.174;61.310;2024-01-10T07:18:09;27.10;11.20
11454;DHT22;5783;55.174;61.310;2024-01-10T07:28:04;27.70;10.00
11454;DHT22;5783;55.174;61.310;2024-01-10T07:30:34;27.70;10.00
11454;DHT22;5783;55.174;61.310;2024-01-10T07:33:04;27.70;9.90
11454;DHT22;5783;55.174;61.310;2024-01-10T07:35:34;27.10;25.90
11454;DHT22;5783;55.174;61.310;2024-01-10T07:38:05;27.80;9.90
11454;DHT22;5783;55.174;61.310;2024-01-10T07:40:35;27.80;10.00
11454;DHT22;5783;55.174;61.310;2024-01-10T07:43:04;27.80;10.50
11454;DHT22;5783;55.174;61.310;2024-01-10T07:45:33;27.90;10.10
11454;DHT22;5783;55.174;61.310;2024-01-10T07:48:03;27.90;10.70
11454;DHT22;5783;55.174;61.310;2024-01-10T07:50:32;27.90;9.90
11454;DHT22;5783;55.174;61.310;2024-01-10T07:53:02;27.90;10.40
11454;DHT22;5783;55.174;61.310;2024-01-10T07:55:31;27.90;10.40
11454;DHT22;5783;55.174;61.310;2024-01-10T07:58:01;27.90;10.40
11454;DHT22;5783;55.174;61.310;2024-01-10T08:00:32;27.90;10.50
11454;DHT22;5783;55.174;61.310;2024-01-10T08:03:02;27.90;10.60
11454;DHT22;5783;55.174;61.310;2024-01-10T08:05:31;27.90;10.40
11454;DHT22;5783;55.174;61.310;2024-01-10T08:08:01;27.80;10.40
11454;DHT22;5783;55.174;61.310;2024-01-10T08:10:30;28.10;20.80
11454;DHT22;5783;55.174;61.310;2024-01-10T08:12:59;27.60;10.10
11454;DHT22;5783;55.174;61.310;2024-01-10T08:15:28;27.60;9.90
11454;DHT22;5783;55.174;61.310;2024-01-10T08:17:59;29.90;16.60
11454;DHT22;5783;55.174;61.310;2024-01-10T08:20:48;27.60;10.10
11454;DHT22;5783;55.174;61.310;2024-01-10T08:23:17;27.70;10.60
11454;DHT22;5783;55.174;61.310;2024-01-10T08:25:47;27.80;10.90
11454;DHT22;5783;55.174;61.310;2024-01-10T08:28:16;28.40;25.00
11454;DHT22;5783;55.174;61.310;2024-01-10T08:30:46;27.80;10.10
11454;DHT22;5783;55.174;61.310;2024-01-10T08:33:15;27.70;9.80
11454;DHT22;5783;55.174;61.310;2024-01-10T08:35:44;27.70;11.10
11454;DHT22;5783;55.174;61.310;2024-01-10T08:38:13;27.70;10.10
11454;DHT22;5783;55.174;61.310;2024-01-10T08:40:43;27.60;9.80
11454;DHT22;5783;55.174;61.310;2024-01-10T08:45:40;26.70;8.70
11454;DHT22;5783;55.174;61.310;2024-01-10T08:48:10;26.10;18.60
11454;DHT22;5783;55.174;61.310;2024-01-10T08:55:38;26.10;18.30
11454;DHT22;5783;55.174;61.310;2024-01-10T09:00:36;26.50;9.70
11454;DHT22;5783;55.174;61.310;2024-01-10T09:03:05;26.70;24.20
11454;DHT22;5783;55.174;61.310;2024-01-10T09:05:35;25.90;13.70
11454;DHT22;5783;55.174;61.310;2024-01-10T09:08:05;26.70;31.70
11454;DHT22;5783;55.174;61.310;2024-01-10T09:10:34;25.90;10.70
11454;DHT22;5783;55.174;61.310;2024-01-10T09:13:05;27.00;13.60
11454;DHT22;5783;55.174;61.310;2024-01-10T09:15:34;27.30;16.60
11454;DHT22;5783;55.174;61.310;2024-01-10T09:18:03;27.00;9.50
11454;DHT22;5783;55.174;61.310;2024-01-10T09:20:32;28.00;36.60
11454;DHT22;5783;55.174;61.310;2024-01-10T09:23:02;27.50;13.60
11454;DHT22;5783;55.174;61.310;2024-01-10T09:25:32;27.30;12.50
11454;DHT22;5783;55.174;61.310;2024-01-10T09:28:01;27.40;9.70
11454;DHT22;5783;55.174;61.310;2024-01-10T09:30:30;27.60;12.50
11454;DHT22;5783;55.174;61.310;2024-01-10T09:40:27;27.40;9.90
11454;DHT22;5783;55.174;61.310;2024-01-10T09:45:26;28.70;10.40
11454;DHT22;5783;55.174;61.310;2024-01-10T09:47:57;28.10;25.20
11454;DHT22;5783;55.174;61.310;2024-01-10T09:50:27;28.00;9.80
11454;DHT22;5783;55.174;61.310;2024-01-10T09:55:48;28.00;12.60
11454;DHT22;5783;55.174;61.310;2024-01-10T10:00:45;28.00;9.20
11454;DHT22;5783;55.174;61.310;2024-01-10T10:03:14;28.00;9.70
11454;DHT22;5783;55.174;61.310;2024-01-10T10:08:14;28.20;9.00
11454;DHT22;5783;55.174;61.310;2024-01-10T10:16:04;28.50;19.30
11454;DHT22;5783;55.174;61.310;2024-01-10T10:18:32;28.10;10.70
11454;DHT22;5783;55.174;61.310;2024-01-10T10:24:09;27.80;12.00
11454;DHT22;5783;55.174;61.310;2024-01-10T10:26:39;28.40;21.60
11454;DHT22;5783;55.174;61.310;2024-01-10T10:29:09;28.30;14.80
11454;DHT22;5783;55.174;61.310;2024-01-10T10:31:37;28.10;9.40
11454;DHT22;5783;55.174;61.310;2024-01-10T10:34:06;28.20;9.50
11454;DHT22;5783;55.174;61.310;2024-01-10T10:36:35;28.30;9.40
11454;DHT22;5783;55.174;61.310;2024-01-10T10:39:03;28.30;9.20
11454;DHT22;5783;55.174;61.310;2024-01-10T10:41:35;28.40;9.30
11454;DHT22;5783;55.174;61.310;2024-01-10T10:44:08;28.30;9.10
11454;DHT22;5783;55.174;61.310;2024-01-10T10:46:38;28.40;9.30
11454;DHT22;5783;55.174;61.310;2024-01-10T10:49:11;28.30;9.10
11454;DHT22;5783;55.174;61.310;2024-01-10T10:51:39;28.10;9.20
11454;DHT22;5783;55.174;61.310;2024-01-10T10:54:09;28.20;9.30
11454;DHT22;5783;55.174;61.310;2024-01-10T10:56:37;28.20;9.20
11454;DHT22;5783;55.174;61.310;2024-01-10T10:59:06;28.20;9.40
11454;DHT22;5783;55.174;61.310;2024-01-10T11:01:35;28.30;9.30
11454;DHT22;5783;55.174;61.310;2024-01-10T11:04:04;28.40;9.20
11454;DHT22;5783;55.174;61.310;2024-01-10T11:06:33;28.40;9.00
11454;DHT22;5783;55.174;61.310;2024-01-10T11:24:53;28.20;9.00
11454;DHT22;5783;55.174;61.310;2024-01-10T11:27:22;28.20;13.00
11454;DHT22;5783;55.174;61.310;2024-01-10T11:29:51;28.30;8.90
11454;DHT22;5783;55.174;61.310;2024-01-10T11:32:22;28.30;8.70
11454;DHT22;5783;55.174;61.310;2024-01-10T11:38:00;28.20;8.80
11454;DHT22;5783;55.174;61.310;2024-01-10T11:43:16;28.20;12.20
11454;DHT22;5783;55.174;61.310;2024-01-10T11:48:32;28.30;8.90
11454;DHT22;5783;55.174;61.310;2024-01-10T11:51:01;28.30;9.40
11454;DHT22;5783;55.174;61.310;2024-01-10T11:56:19;27.70;8.40
11454;DHT22;5783;55.174;61.310;2024-01-10T11:59:09;28.10;21.90
11454;DHT22;5783;55.174;61.310;2024-01-10T12:01:38;28.40;9.10
11454;DHT22;5783;55.174;61.310;2024-01-10T12:04:07;28.40;9.10
11454;DHT22;5783;55.174;61.310;2024-01-10T12:09:03;28.40;9.00
11454;DHT22;5783;55.174;61.310;2024-01-10T12:16:51;28.40;8.70
11454;DHT22;5783;55.174;61.310;2024-01-10T12:19:20;28.40;8.60
11454;DHT22;5783;55.174;61.310;2024-01-10T12:21:48;28.40;8.50
11454;DHT22;5783;55.174;61.310;2024-01-10T12:24:18;28.50;15.20
11454;DHT22;5783;55.174;61.310;2024-01-10T12:26:48;28.20;11.40
11454;DHT22;5783;55.174;61.310;2024-01-10T12:29:17;27.90;19.70
11454;DHT22;5783;55.174;61.310;2024-01-10T12:32:05;28.40;20.30
11454;DHT22;5783;55.174;61.310;2024-01-10T12:37:03;27.80;18.50
11454;DHT22;5783;55.174;61.310;2024-01-10T12:39:32;28.40;9.40
11454;DHT22;5783;55.174;61.310;2024-01-10T12:44:30;28.00;28.00
11454;DHT22;5783;55.174;61.310;2024-01-10T12:46:58;28.40;8.90
11454;DHT22;5783;55.174;61.310;2024-01-10T12:49:26;28.30;9.00
11454;DHT22;5783;55.174;61.310;2024-01-10T12:51:55;28.30;9.10
11454;DHT22;5783;55.174;61.310;2024-01-10T12:54:23;28.10;12.90
11454;DHT22;5783;55.174;61.310;2024-01-10T12:57:22;28.40;9.60
11454;DHT22;5783;55.174;61.310;2024-01-10T12:59:23;28.20;9.10
11454;DHT22;5783;55.174;61.310;2024-01-10T13:01:51;28.20;9.00
11454;DHT22;5783;55.174;61.310;2024-01-10T13:04:19;28.20;9.00
11454;DHT22;5783;55.174;61.310;2024-01-10T13:06:47;28.90;13.50
11454;DHT22;5783;55.174;61.310;2024-01-10T13:09:15;28.20;8.70
11454;DHT22;5783;55.174;61.310;2024-01-10T13:11:43;29.20;26.40
11454;DHT22;5783;55.174;61.310;2024-01-10T13:14:12;28.20;11.40
11454;DHT22;5783;55.174;61.310;2024-01-10T13:16:41;27.50;8.80
11454;DHT22;5783;55.174;61.310;2024-01-10T13:21:37;28.20;11.60
11454;DHT22;5783;55.174;61.310;2024-01-10T13:24:07;28.10;8.80
11454;DHT22;5783;55.174;61.310;2024-01-10T13:26:35;28.20;8.90
11454;DHT22;5783;55.174;61.310;2024-01-10T13:29:05;28.30;8.60
11454;DHT22;5783;55.174;61.310;2024-01-10T13:31:33;28.30;8.60
11454;DHT22;5783;55.174;61.310;2024-01-10T13:34:02;29.10;10.90
11454;DHT22;5783;55.174;61.310;2024-01-10T13:36:31;28.30;8.90
11454;DHT22;5783;55.174;61.310;2024-01-10T13:41:27;28.20;8.50
11454;DHT22;5783;55.174;61.310;2024-01-10T13:43:56;28.20;9.80
11454;DHT22;5783;55.174;61.310;2024-01-10T13:51:23;28.10;8.50
11454;DHT22;5783;55.174;61.310;2024-01-10T13:53:51;28.10;9.60
11454;DHT22;5783;55.174;61.310;2024-01-10T14:01:21;26.00;7.40
11454;DHT22;5783;55.174;61.310;2024-01-10T14:03:50;28.20;8.90
11454;DHT22;5783;55.174;61.310;2024-01-10T14:06:19;28.20;8.90
11454;DHT22;5783;55.174;61.310;2024-01-10T14:08:48;28.20;8.90
11454;DHT22;5783;55.174;61.310;2024-01-10T14:11:17;28.20;8.90
11454;DHT22;5783;55.174;61.310;2024-01-10T14:13:47;28.20;8.90
11454;DHT22;5783;55.174;61.310;2024-01-10T14:16:16;28.20;9.10
11454;DHT22;5783;55.174;61.310;2024-01-10T14:18:45;28.20;9.00
11454;DHT22;5783;55.174;61.310;2024-01-10T14:21:15;28.30;9.00
11454;DHT22;5783;55.174;61.310;2024-01-10T14:23:44;28.30;9.00
11454;DHT22;5783;55.174;61.310;2024-01-10T14:26:14;28.30;8.90
11454;DHT22;5783;55.174;61.310;2024-01-10T14:28:42;28.30;8.50
11454;DHT22;5783;55.174;61.310;2024-01-10T14:31:11;28.30;8.90
11454;DHT22;5783;55.174;61.310;2024-01-10T14:33:41;28.20;9.00
11454;DHT22;5783;55.174;61.310;2024-01-10T14:36:09;28.20;9.00
11454;DHT22;5783;55.174;61.310;2024-01-10T14:38:38;28.30;9.00
11454;DHT22;5783;55.174;61.310;2024-01-10T14:41:06;28.30;9.10
11454;DHT22;5783;55.174;61.310;2024-01-10T14:46:23;28.40;8.90
